Time;durP1;ratioP1;P1;durP2;ratioP2;P2;SDS_P1;SDS_P2;PMS_P1;PMS_P2;Temp;Humidity;BMP_temperature;BMP_pressure;BME280_temperature;BME280_humidity;BME280_pressure;Samples;Min_cycle;Max_cycle;Signal;HPM_P1;HPM_P2
2022/09/03 00:00:40;;;;;;;;;;;;;;;19.59;57.21;101571.09;5010440;27;124337;-82
2022/09/03 00:03:08;;;;;;;;;;;;;;;19.60;57.34;101567.81;4992569;27;119712;-80
2022/09/03 00:05:38;;;;;;;;;;;;;;;19.62;57.31;101568.06;4996597;27;119937;-80
2022/09/03 00:08:19;;;;;;;;;;;;;;;19.63;57.08;101564.03;5007030;27;120856;-80
2022/09/03 00:10:52;;;;;;;;;;;;;;;19.66;56.94;101562.31;4993813;27;122602;-80
2022/09/03 00:13:27;;;;;;;;;;;;;;;19.69;57.12;101561.31;5005385;27;121065;-80
2022/09/03 00:15:58;;;;;;;;;;;;;;;19.72;57.03;101559.56;4993063;27;119904;-80
2022/09/03 00:18:27;;;;;;;;;;;;;;;19.74;57.19;101566.16;5028834;27;120106;-80
2022/09/03 00:21:11;;;;;;;;;;;;;;;19.77;57.12;101561.63;4996525;27;121650;-80
2022/09/03 00:23:40;;;;;;;;;;;;;;;19.78;57.21;101565.94;4992874;27;120024;-80
2022/09/03 00:26:12;;;;;;;;;;;;;;;19.80;57.14;101569.00;5012577;27;122644;-80
2022/09/03 00:28:41;;;;;;;;;;;;;;;19.82;57.21;101560.91;5006812;27;122692;-80
2022/09/03 00:31:06;;;;;;;;;;;;;;;19.85;57.42;101562.72;4991802;27;122038;-80
2022/09/03 00:33:32;;;;;;;;;;;;;;;19.86;57.35;101561.44;5009155;27;122701;-80
2022/09/03 00:36:01;;;;;;;;;;;;;;;19.87;57.55;101557.41;5011025;27;120113;-80
2022/09/03 00:38:28;;;;;;;;;;;;;;;19.88;57.53;101553.38;5009634;27;120069;-80
2022/09/03 00:41:13;;;;;;;;;;;;;;;19.87;57.43;101544.28;4993369;27;120386;-80
2022/09/03 00:43:47;;;;;;;;;;;;;;;19.89;57.72;101557.69;4985197;27;119859;-79
2022/09/03 00:46:33;;;;;;;;;;;;;;;19.90;57.65;101550.88;4973781;27;122152;-80
2022/09/03 00:49:20;;;;;;;;;;;;;;;19.90;57.49;101542.53;5003198;27;121400;-81
2022/09/03 00:52:01;;;;;;;;;;;;;;;19.90;57.51;101540.50;5026847;27;119846;-80
2022/09/03 00:54:53;;;;;;;;;;;;;;;19.90;57.41;101539.72;4983393;27;123611;-80
2022/09/03 00:57:37;;;;;;;;;;;;;;;19.90;57.45;101539.72;5024461;27;119979;-80
2022/09/03 01:00:11;;;;;;;;;;;;;;;19.90;57.06;101534.16;4987061;27;121661;-80
2022/09/03 01:02:57;;;;;;;;;;;;;;;19.89;57.33;101536.19;4991422;27;122815;-81
2022/09/03 01:05:35;;;;;;;;;;;;;;;19.90;57.50;101546.06;5021998;27;119815;-81
2022/09/03 01:08:02;;;;;;;;;;;;;;;19.86;57.73;101534.38;4983883;27;121793;-81
2022/09/03 01:10:27;;;;;;;;;;;;;;;19.91;57.68;101542.03;5010626;27;121108;-81
2022/09/03 01:12:59;;;;;;;;;;;;;;;19.92;57.66;101548.34;5015622;27;120787;-81
2022/09/03 01:15:34;;;;;;;;;;;;;;;19.90;57.55;101543.28;5005017;27;122670;-81
2022/09/03 01:18:03;;;;;;;;;;;;;;;19.90;57.70;101539.72;5013500;27;121075;-81
2022/09/03 01:20:35;;;;;;;;;;;;;;;19.88;57.65;101539.47;4974634;27;121920;-81
2022/09/03 01:23:07;;;;;;;;;;;;;;;19.87;57.51;101538.72;4971252;27;122691;-81
2022/09/03 01:25:44;;;;;;;;;;;;;;;19.85;57.70;101538.41;5006615;27;119808;-80
2022/09/03 01:28:22;;;;;;;;;;;;;;;19.84;57.78;101536.13;5028356;27;119901;-81
2022/09/03 01:30:52;;;;;;;;;;;;;;;19.84;57.69;101530.56;5007612;27;120114;-81
2022/09/03 01:33:37;;;;;;;;;;;;;;;19.82;57.76;101530.28;4975096;27;120163;-81
2022/09/03 01:36:21;;;;;;;;;;;;;;;19.80;57.80;101533.56;5005332;27;122693;-81
2022/09/03 01:38:52;;;;;;;;;;;;;;;19.79;57.95;101534.06;4992048;27;119857;-81
2022/09/03 01:44:21;;;;;;;;;;;;;;;19.75;58.13;101541.88;5026014;27;121460;-81
2022/09/03 01:46:49;;;;;;;;;;;;;;;19.72;58.35;101532.50;5026252;27;122047;-82
2022/09/03 01:49:32;;;;;;;;;;;;;;;19.72;58.49;101540.09;5007783;27;119999;-82
2022/09/03 01:52:02;;;;;;;;;;;;;;;19.70;58.63;101531.47;5006359;27;122809;-81
2022/09/03 01:54:44;;;;;;;;;;;;;;;19.67;58.58;101538.78;5007943;27;120992;-82
2022/09/03 01:57:23;;;;;;;;;;;;;;;19.66;58.76;101542.84;5032292;27;120292;-84
2022/09/03 02:00:09;;;;;;;;;;;;;;;19.64;58.84;101537.00;5021574;27;120951;-81
2022/09/03 02:02:39;;;;;;;;;;;;;;;19.62;58.88;101543.03;5010504;27;121947;-82
2022/09/03 02:05:08;;;;;;;;;;;;;;;19.62;58.84;101531.91;4991064;27;123313;-82
2022/09/03 02:07:38;;;;;;;;;;;;;;;19.62;58.93;101542.25;5006091;27;120798;-81
2022/09/03 02:10:05;;;;;;;;;;;;;;;19.61;59.08;101541.50;4985688;27;121866;-81
2022/09/03 02:12:32;;;;;;;;;;;;;;;19.61;58.70;101535.94;5026729;27;121223;-81
2022/09/03 02:15:04;;;;;;;;;;;;;;;19.61;59.00;101535.94;5009598;27;121407;-81
2022/09/03 02:17:31;;;;;;;;;;;;;;;19.61;58.81;101533.16;5019024;27;119809;-82
2022/09/03 02:19:57;;;;;;;;;;;;;;;19.61;59.13;101527.59;5027548;27;120028;-82
2022/09/03 02:22:23;;;;;;;;;;;;;;;19.63;59.25;101525.06;5031097;27;120632;-81
2022/09/03 02:24:48;;;;;;;;;;;;;;;19.66;59.25;101522.59;5006996;27;123827;-82
2022/09/03 02:27:14;;;;;;;;;;;;;;;19.68;59.38;101522.84;5015373;27;120173;-82
2022/09/03 02:29:40;;;;;;;;;;;;;;;19.68;59.22;101520.84;5007016;27;121776;-81
2022/09/03 02:32:05;;;;;;;;;;;;;;;19.70;59.10;101523.88;4988209;27;121601;-82
2022/09/03 02:34:31;;;;;;;;;;;;;;;19.70;59.20;101523.13;5032513;27;119982;-82
2022/09/03 02:36:56;;;;;;;;;;;;;;;19.69;59.20;101519.56;4999332;27;121463;-81
2022/09/03 02:39:29;;;;;;;;;;;;;;;19.70;59.34;101514.78;5009690;27;120555;-81
2022/09/03 02:41:56;;;;;;;;;;;;;;;19.70;59.05;101515.53;5006248;27;120921;-81
2022/09/03 02:44:29;;;;;;;;;;;;;;;19.71;58.98;101510.72;4994799;27;121860;-82
2022/09/03 02:46:57;;;;;;;;;;;;;;;19.70;59.33;101507.19;5004202;27;120026;-82
2022/09/03 02:49:23;;;;;;;;;;;;;;;19.70;59.19;101509.97;4973082;27;122099;-81
2022/09/03 02:51:48;;;;;;;;;;;;;;;19.69;58.96;101511.22;4990340;27;122814;-82
2022/09/03 02:54:14;;;;;;;;;;;;;;;19.69;59.17;101507.69;4974522;27;119819;-81
2022/09/03 02:56:40;;;;;;;;;;;;;;;19.69;59.14;101504.91;4984584;27;122066;-82
2022/09/03 02:59:06;;;;;;;;;;;;;;;19.68;58.94;101501.34;4992455;27;123107;-82
2022/09/03 03:01:32;;;;;;;;;;;;;;;19.68;59.18;101506.16;5026330;27;120105;-81
2022/09/03 03:04:01;;;;;;;;;;;;;;;19.68;59.28;101500.59;5009552;27;121416;-81
2022/09/03 03:06:26;;;;;;;;;;;;;;;19.67;59.34;101510.19;5001579;27;119967;-81
2022/09/03 03:08:54;;;;;;;;;;;;;;;19.65;59.13;101507.16;5018027;27;120404;-82
2022/09/03 03:11:21;;;;;;;;;;;;;;;19.62;58.94;101506.84;5015256;27;122685;-82
2022/09/03 03:13:47;;;;;;;;;;;;;;;19.61;59.14;101508.09;4995364;27;120280;-83
2022/09/03 03:16:16;;;;;;;;;;;;;;;19.62;59.26;101512.41;4995784;27;120084;-81
2022/09/03 03:18:41;;;;;;;;;;;;;;;19.61;59.51;101512.91;4993152;27;122836;-82
2022/09/03 03:21:11;;;;;;;;;;;;;;;19.59;59.50;101507.84;5029152;27;120526;-82
2022/09/03 03:23:37;;;;;;;;;;;;;;;19.60;59.64;101516.94;4994591;27;121461;-82
2022/09/03 03:26:10;;;;;;;;;;;;;;;19.58;59.71;101509.09;5033330;27;120893;-81
2022/09/03 03:28:36;;;;;;;;;;;;;;;19.57;59.47;101507.56;5011030;27;119753;-80
2022/09/03 03:31:31;;;;;;;;;;;;;;;19.57;59.48;101513.13;4988655;27;123316;-80
2022/09/03 03:33:58;;;;;;;;;;;;;;;19.57;59.50;101518.69;4967129;27;119864;-81
2022/09/03 03:36:34;;;;;;;;;;;;;;;19.58;59.54;101514.66;4991681;27;122708;-80
2022/09/03 03:39:00;;;;;;;;;;;;;;;19.57;59.07;101518.69;5007729;27;124041;-80
2022/09/03 03:41:28;;;;;;;;;;;;;;;19.58;59.30;101516.69;5006806;27;120848;-80
2022/09/03 03:43:55;;;;;;;;;;;;;;;19.58;59.21;101522.25;4981676;27;121721;-81
2022/09/03 03:46:21;;;;;;;;;;;;;;;19.57;58.99;101518.69;5013548;27;122823;-80
2022/09/03 03:48:47;;;;;;;;;;;;;;;19.58;59.40;101523.00;5013219;27;121270;-80
2022/09/03 03:51:13;;;;;;;;;;;;;;;19.59;59.05;101521.00;5027935;27;120335;-80
2022/09/03 03:53:41;;;;;;;;;;;;;;;19.60;58.90;101517.72;5016311;27;121557;-80
2022/09/03 03:56:11;;;;;;;;;;;;;;;19.61;59.08;101518.47;5008289;27;120048;-80
2022/09/03 03:58:36;;;;;;;;;;;;;;;19.61;59.19;101516.47;5008477;27;123559;-80
2022/09/03 04:01:06;;;;;;;;;;;;;;;19.65;59.03;101512.72;4973654;27;120294;-79
2022/09/03 04:03:32;;;;;;;;;;;;;;;19.67;59.16;101521.31;4981855;27;121404;-80
2022/09/03 04:05:58;;;;;;;;;;;;;;;19.66;59.20;101519.81;4996440;27;122812;-81
2022/09/03 04:08:24;;;;;;;;;;;;;;;19.69;59.33;101521.59;5029855;27;119628;-81
2022/09/03 04:10:50;;;;;;;;;;;;;;;19.70;59.07;101517.56;4983038;27;121408;-81
2022/09/03 04:13:16;;;;;;;;;;;;;;;19.71;58.78;101527.44;5011634;27;120091;-81
2022/09/03 04:15:41;;;;;;;;;;;;;;;19.72;58.92;101528.97;5007439;27;121237;-81
2022/09/03 04:18:07;;;;;;;;;;;;;;;19.73;59.17;101527.69;5017881;27;122653;-81
2022/09/03 04:20:34;;;;;;;;;;;;;;;19.76;58.89;101532.28;5015297;27;120987;-80
2022/09/03 04:23:00;;;;;;;;;;;;;;;19.76;58.95;101529.50;5004275;27;120291;-81
2022/09/03 04:25:26;;;;;;;;;;;;;;;19.77;58.72;101531.78;5013255;27;122966;-81
2022/09/03 04:27:51;;;;;;;;;;;;;;;19.79;58.83;101531.28;5011007;27;120753;-81
2022/09/03 04:30:17;;;;;;;;;;;;;;;19.80;58.74;101530.03;4978547;27;122249;-81
2022/09/03 04:32:52;;;;;;;;;;;;;;;19.81;58.96;101526.75;4998216;27;122449;-81
2022/09/03 04:35:19;;;;;;;;;;;;;;;19.82;58.68;101531.06;4974435;27;122389;-81
2022/09/03 04:37:45;;;;;;;;;;;;;;;19.84;58.86;101530.56;4985019;27;122288;-80
2022/09/03 04:40:10;;;;;;;;;;;;;;;19.85;58.59;101532.06;5010822;27;119989;-81
2022/09/03 04:42:36;;;;;;;;;;;;;;;19.86;58.63;101531.59;5002864;27;121590;-81
2022/09/03 04:45:01;;;;;;;;;;;;;;;19.87;58.29;101540.69;4984270;27;122868;-82
2022/09/03 04:47:27;;;;;;;;;;;;;;;19.88;58.15;101539.47;5029234;27;119699;-82
2022/09/03 04:49:54;;;;;;;;;;;;;;;19.89;58.27;101541.00;4985601;28;120611;-82
2022/09/03 04:52:19;;;;;;;;;;;;;;;19.91;58.12;101532.91;5020522;27;119946;-81
2022/09/03 04:54:45;;;;;;;;;;;;;;;19.93;58.12;101541.53;5020341;27;120702;-81
2022/09/03 04:57:10;;;;;;;;;;;;;;;19.95;58.48;101544.56;5010111;27;121711;-81
2022/09/03 04:59:36;;;;;;;;;;;;;;;19.98;58.35;101546.38;4996600;27;120118;-81
2022/09/03 05:02:01;;;;;;;;;;;;;;;20.00;58.69;101549.41;4997901;27;122417;-81
2022/09/03 05:04:27;;;;;;;;;;;;;;;20.02;58.63;101549.69;4988822;27;123640;-82
2022/09/03 05:06:53;;;;;;;;;;;;;;;20.02;58.48;101549.69;4998177;27;120035;-82
2022/09/03 05:09:24;;;;;;;;;;;;;;;20.03;58.27;101545.63;4992061;27;121292;-81
2022/09/03 05:11:50;;;;;;;;;;;;;;;20.05;58.15;101545.13;4979566;27;121812;-81
2022/09/03 05:14:18;;;;;;;;;;;;;;;20.05;58.08;101543.13;5009032;27;120364;-82
2022/09/03 05:16:43;;;;;;;;;;;;;;;20.07;58.09;101546.16;4997471;27;122857;-81
2022/09/03 05:19:09;;;;;;;;;;;;;;;20.09;57.68;101554.03;5004363;27;121088;-81
2022/09/03 05:21:35;;;;;;;;;;;;;;;20.11;58.04;101548.72;4993705;27;121567;-81
2022/09/03 05:24:05;;;;;;;;;;;;;;;20.12;57.79;101553.06;4992446;27;123546;-81
2022/09/03 05:26:35;;;;;;;;;;;;;;;20.14;58.00;101554.09;5026531;27;121385;-81
2022/09/03 05:29:01;;;;;;;;;;;;;;;20.15;57.95;101554.84;5007014;27;120064;-81
2022/09/03 05:31:30;;;;;;;;;;;;;;;20.18;58.36;101557.41;5008866;27;123003;-81
2022/09/03 05:33:57;;;;;;;;;;;;;;;20.20;58.05;101552.09;4979529;27;119736;-81
2022/09/03 05:36:24;;;;;;;;;;;;;;;20.23;58.10;101550.34;5029262;27;121041;-81
2022/09/03 05:38:52;;;;;;;;;;;;;;;20.24;58.08;101555.41;4986367;27;120518;-81
2022/09/03 05:41:19;;;;;;;;;;;;;;;20.25;58.33;101550.59;5025717;27;120373;-82
2022/09/03 05:43:51;;;;;;;;;;;;;;;20.28;57.96;101551.63;5008327;27;124246;-81
2022/09/03 05:46:17;;;;;;;;;;;;;;;20.29;58.06;101553.91;4993473;27;121920;-82
2022/09/03 05:48:43;;;;;;;;;;;;;;;20.33;58.32;101553.69;5009648;27;121399;-81
2022/09/03 05:51:35;;;;;;;;;;;;;;;20.35;58.07;101551.19;4980040;27;121022;-82
2022/09/03 05:54:02;;;;;;;;;;;;;;;20.38;58.14;101555.75;5010414;27;119889;-81
2022/09/03 05:56:32;;;;;;;;;;;;;;;20.39;57.48;101551.72;5005299;27;120019;-81
2022/09/03 05:59:04;;;;;;;;;;;;;;;20.43;57.63;101552.25;5004559;27;120932;-82
2022/09/03 06:01:31;;;;;;;;;;;;;;;20.47;57.60;101552.78;5026681;27;120342;-81
2022/09/03 06:03:57;;;;;;;;;;;;;;;20.51;57.59;101556.09;5025232;27;120485;-81
2022/09/03 06:06:26;;;;;;;;;;;;;;;20.53;57.29;101556.34;5026201;27;120229;-82
2022/09/03 06:08:56;;;;;;;;;;;;;;;20.55;56.80;101551.03;5008746;27;121697;-82
2022/09/03 06:11:28;;;;;;;;;;;;;;;20.59;57.05;101548.81;5010687;27;123185;-82
2022/09/03 06:13:55;;;;;;;;;;;;;;;20.64;57.05;101556.44;5008217;27;119976;-82
2022/09/03 06:16:21;;;;;;;;;;;;;;;20.67;56.43;101555.44;5008800;27;121959;-82
2022/09/03 06:18:47;;;;;;;;;;;;;;;20.71;56.73;101561.53;5011228;27;120598;-81
2022/09/03 06:21:13;;;;;;;;;;;;;;;20.76;56.68;101560.00;5030202;27;119639;-82
2022/09/03 06:23:42;;;;;;;;;;;;;;;20.79;56.91;101553.44;5006744;27;123748;-83
2022/09/03 06:26:12;;;;;;;;;;;;;;;20.83;57.11;101556.78;4981723;27;119927;-82
2022/09/03 06:28:40;;;;;;;;;;;;;;;20.87;57.12;101562.09;4974338;27;121734;-82
2022/09/03 06:31:06;;;;;;;;;;;;;;;20.88;56.39;101553.25;4988507;27;122845;-82
2022/09/03 06:33:33;;;;;;;;;;;;;;;20.91;56.47;101554.25;4976609;27;120080;-81
2022/09/03 06:35:59;;;;;;;;;;;;;;;20.94;56.15;101565.16;5008413;27;120301;-80
2022/09/03 06:38:26;;;;;;;;;;;;;;;20.97;56.13;101561.38;5023144;27;119969;-81
2022/09/03 06:40:52;;;;;;;;;;;;;;;21.01;55.72;101555.53;5021209;27;120041;-81
2022/09/03 06:43:18;;;;;;;;;;;;;;;21.05;55.31;101561.63;4993927;27;122283;-82
2022/09/03 06:45:51;;;;;;;;;;;;;;;21.08;54.83;101560.66;5011542;27;119741;-81
2022/09/03 06:48:17;;;;;;;;;;;;;;;21.12;54.44;101558.38;4975838;27;120000;-81
2022/09/03 06:51:13;;;;;;;;;;;;;;;21.18;54.30;101567.53;5027849;27;121142;-81
2022/09/03 06:53:40;;;;;;;;;;;;;;;21.23;53.97;101557.63;4988922;27;119757;-81
2022/09/03 06:56:07;;;;;;;;;;;;;;;21.25;53.31;101558.69;5004348;27;121860;-81
2022/09/03 06:58:37;;;;;;;;;;;;;;;21.31;53.74;101553.13;5028980;27;120893;-81
2022/09/03 07:01:05;;;;;;;;;;;;;;;21.36;53.37;101553.16;5019490;27;119931;-81
2022/09/03 07:03:31;;;;;;;;;;;;;;;21.39;52.28;101556.94;5008578;27;121997;-81
2022/09/03 07:06:04;;;;;;;;;;;;;;;21.41;52.40;101560.00;5018939;27;122930;-81
2022/09/03 07:08:33;;;;;;;;;;;;;;;21.43;52.13;101557.47;5008232;27;121692;-81
2022/09/03 07:11:04;;;;;;;;;;;;;;;21.45;52.25;101555.69;5014789;27;123142;-82
2022/09/03 07:13:31;;;;;;;;;;;;;;;21.50;52.44;101551.38;5014542;27;119968;-81
2022/09/03 07:15:57;;;;;;;;;;;;;;;21.55;52.32;101552.66;4998651;27;121487;-81
2022/09/03 07:18:23;;;;;;;;;;;;;;;21.58;52.61;101544.03;4984020;28;121139;-82
2022/09/03 07:20:48;;;;;;;;;;;;;;;21.61;52.04;101545.06;5024869;27;122834;-82
2022/09/03 07:23:15;;;;;;;;;;;;;;;21.62;51.71;101552.16;5002281;27;122395;-82
2022/09/03 07:25:40;;;;;;;;;;;;;;;21.61;51.66;101554.19;5011789;27;122875;-81
2022/09/03 07:28:06;;;;;;;;;;;;;;;21.59;51.27;101545.56;4992531;27;122119;-81
2022/09/03 07:30:31;;;;;;;;;;;;;;;21.61;51.30;101545.06;4970793;27;124109;-81
2022/09/03 07:33:03;;;;;;;;;;;;;;;21.62;51.66;101552.91;5009013;27;121039;-82
2022/09/03 07:35:34;;;;;;;;;;;;;;;21.63;51.28;101548.84;5007460;27;123016;-82
2022/09/03 07:38:00;;;;;;;;;;;;;;;21.63;50.54;101553.69;4990893;27;123917;-82
2022/09/03 07:40:26;;;;;;;;;;;;;;;21.64;50.89;101555.19;5000201;27;120221;-81
2022/09/03 07:42:57;;;;;;;;;;;;;;;21.64;50.69;101558.75;5007477;27;120480;-81
2022/09/03 07:45:23;;;;;;;;;;;;;;;21.70;50.93;101553.16;5007517;27;123594;-81
2022/09/03 07:47:52;;;;;;;;;;;;;;;21.76;50.59;101551.13;4982848;27;120101;-81
2022/09/03 07:50:17;;;;;;;;;;;;;;;21.82;50.44;101551.16;4985343;27;124127;-80
2022/09/03 07:52:43;;;;;;;;;;;;;;;21.88;49.56;101546.31;5026085;27;120127;-82
2022/09/03 07:55:08;;;;;;;;;;;;;;;21.91;49.13;101546.06;4989689;27;123548;-82
2022/09/03 07:57:34;;;;;;;;;;;;;;;21.96;48.95;101555.69;4990309;27;122853;-82
2022/09/03 08:00:00;;;;;;;;;;;;;;;22.02;48.70;101559.28;4991680;27;119848;-82
2022/09/03 08:02:25;;;;;;;;;;;;;;;22.11;48.45;101547.84;5005504;27;121912;-82
2022/09/03 08:04:51;;;;;;;;;;;;;;;22.22;48.47;101555.44;5023672;27;121705;-82
2022/09/03 08:07:40;;;;;;;;;;;;;;;22.37;48.57;101555.91;4987006;27;120505;-82
2022/09/03 08:10:05;;;;;;;;;;;;;;;22.50;48.33;101553.34;4994512;27;121982;-82
2022/09/03 08:12:31;;;;;;;;;;;;;;;22.63;48.35;101556.34;5020826;27;121780;-83
2022/09/03 08:14:57;;;;;;;;;;;;;;;22.77;47.72;101548.16;4970064;27;121448;-81
2022/09/03 08:17:22;;;;;;;;;;;;;;;22.89;47.16;101556.00;4990292;27;123897;-82
2022/09/03 08:19:48;;;;;;;;;;;;;;;23.05;46.82;101554.41;5008275;27;120238;-82
2022/09/03 08:22:14;;;;;;;;;;;;;;;23.18;46.02;101553.81;5027719;27;120240;-81
2022/09/03 08:24:41;;;;;;;;;;;;;;;23.28;45.24;101557.84;5013592;27;122513;-82
2022/09/03 08:27:09;;;;;;;;;;;;;;;23.40;45.14;101550.88;5026093;27;120170;-82
2022/09/03 08:29:35;;;;;;;;;;;;;;;23.52;45.07;101554.38;4992220;27;123285;-82
2022/09/03 08:32:02;;;;;;;;;;;;;;;23.65;44.95;101562.94;4992907;27;123015;-82
2022/09/03 08:34:46;;;;;;;;;;;;;;;23.80;43.63;101562.59;5018903;27;122392;-82
2022/09/03 08:37:12;;;;;;;;;;;;;;;23.92;43.40;101560.47;5009142;27;124205;-82
2022/09/03 08:39:37;;;;;;;;;;;;;;;24.02;42.93;101558.84;4991724;27;121044;-82
2022/09/03 08:42:08;;;;;;;;;;;;;;;24.10;42.29;101554.16;5019202;27;121058;-81
2022/09/03 08:44:53;;;;;;;;;;;;;;;24.18;42.21;101555.88;5011817;27;124224;-82
2022/09/03 08:47:40;;;;;;;;;;;;;;;24.27;42.92;101557.56;5029608;27;121780;-82
2022/09/03 08:50:06;;;;;;;;;;;;;;;24.35;42.06;101557.75;5012708;27;123567;-81
2022/09/03 08:52:31;;;;;;;;;;;;;;;24.40;41.49;101557.72;5036108;27;122239;-81
2022/09/03 08:55:01;;;;;;;;;;;;;;;24.46;41.39;101558.41;4989550;27;122184;-81
2022/09/03 08:57:31;;;;;;;;;;;;;;;24.49;40.79;101557.34;4998832;27;121806;-81
2022/09/03 08:59:56;;;;;;;;;;;;;;;24.49;40.14;101553.78;5015383;27;121354;-81
2022/09/03 09:02:42;;;;;;;;;;;;;;;24.51;40.06;101553.25;4992851;27;123215;-81
2022/09/03 09:05:15;;;;;;;;;;;;;;;24.52;39.79;101558.34;5015699;27;123987;-81
2022/09/03 09:07:41;;;;;;;;;;;;;;;24.55;39.26;101560.09;5007523;27;121397;-81
2022/09/03 09:10:09;;;;;;;;;;;;;;;24.55;39.10;101553.72;5018163;27;123244;-81
2022/09/03 09:12:58;;;;;;;;;;;;;;;24.57;38.90;101545.53;4998617;27;123883;-81
2022/09/03 09:15:27;;;;;;;;;;;;;;;24.62;39.43;101547.53;5009772;27;121837;-82
2022/09/03 09:17:58;;;;;;;;;;;;;;;24.70;39.04;101549.19;5000283;27;121478;-81
2022/09/03 09:20:27;;;;;;;;;;;;;;;24.74;38.38;101548.91;5030666;27;121643;-81
2022/09/03 09:23:06;;;;;;;;;;;;;;;24.81;37.41;101556.69;5010865;27;124806;-81
2022/09/03 09:25:37;;;;;;;;;;;;;;;24.82;36.86;101554.66;5009884;27;122877;-81
2022/09/03 09:28:12;;;;;;;;;;;;;;;24.79;36.50;101562.09;5000275;27;121879;-81
2022/09/03 09:30:38;;;;;;;;;;;;;;;24.79;36.13;101550.88;5009098;27;123570;-81
2022/09/03 09:33:06;;;;;;;;;;;;;;;24.80;35.62;101552.38;5031005;27;122102;-81
2022/09/03 09:35:31;;;;;;;;;;;;;;;24.87;36.03;101546.19;4996556;27;121717;-81
2022/09/03 09:37:59;;;;;;;;;;;;;;;24.93;36.21;101566.50;4999136;27;124183;-81
2022/09/03 09:40:31;;;;;;;;;;;;;;;24.89;35.96;101554.84;5008132;27;121799;-81
2022/09/03 09:43:03;;;;;;;;;;;;;;;24.82;35.84;101549.03;5013578;27;122701;-81
2022/09/03 09:45:33;;;;;;;;;;;;;;;24.85;36.63;101550.81;4999288;27;123085;-82
2022/09/03 09:47:59;;;;;;;;;;;;;;;24.92;35.90;101553.78;4996075;27;122394;-81
2022/09/03 09:50:24;;;;;;;;;;;;;;;25.01;36.17;101544.22;5002920;27;124209;-80
2022/09/03 09:53:20;;;;;;;;;;;;;;;25.13;35.86;101540.00;5007419;27;124713;-81
2022/09/03 09:55:49;;;;;;;;;;;;;;;25.13;35.59;101548.41;4995794;27;123220;-81
2022/09/03 09:58:18;;;;;;;;;;;;;;;25.08;34.77;101549.25;5005129;27;123752;-81
2022/09/03 10:00:54;;;;;;;;;;;;;;;25.06;34.94;101552.56;5002729;27;125708;-82
2022/09/03 10:03:20;;;;;;;;;;;;;;;25.01;34.20;101538.63;5005506;27;124497;-82
2022/09/03 10:05:55;;;;;;;;;;;;;;;24.94;34.11;101530.78;5005980;27;125172;-81
2022/09/03 10:08:21;;;;;;;;;;;;;;;24.74;33.81;101543.28;4997788;27;121475;-80
2022/09/03 10:10:48;;;;;;;;;;;;;;;24.54;33.42;101536.13;4998799;27;122652;-80
2022/09/03 10:13:24;;;;;;;;;;;;;;;24.40;33.45;101538.09;5017764;27;121792;-81
2022/09/03 10:15:52;;;;;;;;;;;;;;;24.29;33.86;101531.81;4999778;27;120764;-80
2022/09/03 10:18:27;;;;;;;;;;;;;;;24.30;34.04;101536.91;4998388;27;122740;-81
2022/09/03 10:21:10;;;;;;;;;;;;;;;24.29;34.08;101541.00;4996961;27;125488;-81
2022/09/03 10:23:59;;;;;;;;;;;;;;;24.27;34.70;101534.38;4997995;27;120865;-81
2022/09/03 10:26:28;;;;;;;;;;;;;;;24.30;34.89;101539.72;4990712;27;125300;-81
2022/09/03 10:28:55;;;;;;;;;;;;;;;24.35;34.11;101536.09;4990636;27;121293;-81
2022/09/03 10:31:34;;;;;;;;;;;;;;;24.34;33.97;101537.38;5014011;27;123736;-81
2022/09/03 10:34:08;;;;;;;;;;;;;;;24.31;33.35;101535.63;5006978;27;124633;-81
2022/09/03 10:36:38;;;;;;;;;;;;;;;24.23;33.81;101531.88;5018159;27;120928;-81
2022/09/03 10:39:06;;;;;;;;;;;;;;;24.20;34.38;101524.50;5031438;27;121258;-81
2022/09/03 10:41:40;;;;;;;;;;;;;;;24.21;34.68;101523.22;5011454;27;121833;-82
2022/09/03 10:44:53;;;;;;;;;;;;;;;24.28;34.11;101531.06;4956606;28;124519;-81
2022/09/03 10:47:37;;;;;;;;;;;;;;;24.38;35.20;101518.22;4963026;28;123604;-81
2022/09/03 10:50:15;;;;;;;;;;;;;;;24.49;34.95;101517.31;4942663;28;121579;-82
2022/09/03 10:52:43;;;;;;;;;;;;;;;24.61;34.77;101503.94;4954592;28;122317;-82
2022/09/03 10:55:09;;;;;;;;;;;;;;;24.73;35.25;101522.13;4942260;28;125220;-81
2022/09/03 10:57:44;;;;;;;;;;;;;;;24.80;35.19;101530.69;4959504;28;122389;-81
2022/09/03 11:00:13;;;;;;;;;;;;;;;24.83;34.91;101523.25;4958042;28;123502;-81
2022/09/03 11:02:41;;;;;;;;;;;;;;;24.88;35.39;101519.66;4973419;28;122169;-81
2022/09/03 11:05:37;;;;;;;;;;;;;;;24.87;34.69;101526.53;4971457;28;121672;-82
2022/09/03 11:08:05;;;;;;;;;;;;;;;24.91;35.02;101500.97;4942529;28;123385;-81
2022/09/03 11:10:32;;;;;;;;;;;;;;;24.92;34.86;101516.53;4963252;28;124986;-81
2022/09/03 11:13:05;;;;;;;;;;;;;;;24.87;35.17;101515.31;4953227;28;122319;-81
2022/09/03 11:15:33;;;;;;;;;;;;;;;24.76;35.29;101501.44;4994346;27;124738;-81
2022/09/03 11:18:01;;;;;;;;;;;;;;;24.68;34.65;101506.88;5031250;27;121517;-82
2022/09/03 11:20:31;;;;;;;;;;;;;;;24.66;35.16;101497.50;5008161;27;123179;-81
2022/09/03 11:22:58;;;;;;;;;;;;;;;24.65;35.22;101498.78;4997585;27;124203;-82
2022/09/03 11:25:30;;;;;;;;;;;;;;;24.62;34.93;101491.44;5029059;27;121406;-81
2022/09/03 11:27:59;;;;;;;;;;;;;;;24.70;35.32;101497.94;5000919;27;123006;-81
2022/09/03 11:30:43;;;;;;;;;;;;;;;24.76;35.19;101502.19;5031621;27;122214;-81
2022/09/03 11:33:10;;;;;;;;;;;;;;;24.78;35.39;101498.84;5012068;27;121810;-81
2022/09/03 11:35:35;;;;;;;;;;;;;;;24.81;35.46;101494.97;4979730;27;124521;-81
2022/09/03 11:38:07;;;;;;;;;;;;;;;24.77;34.86;101498.09;5005571;27;121637;-82
2022/09/03 11:40:48;;;;;;;;;;;;;;;24.77;35.07;101500.13;5006913;27;121648;-81
2022/09/03 11:43:23;;;;;;;;;;;;;;;24.76;35.64;101498.63;4999112;27;125075;-82
2022/09/03 11:45:49;;;;;;;;;;;;;;;24.72;35.13;101490.50;4997895;27;123054;-81
2022/09/03 11:48:27;;;;;;;;;;;;;;;24.70;34.95;101495.91;4985884;27;123083;-81
2022/09/03 11:50:54;;;;;;;;;;;;;;;24.72;35.87;101492.56;4984560;27;125693;-82
2022/09/03 11:53:19;;;;;;;;;;;;;;;24.77;35.96;101491.72;5005630;27;122046;-81
2022/09/03 11:55:48;;;;;;;;;;;;;;;24.78;35.49;101493.25;5022140;27;124468;-81
2022/09/03 11:58:23;;;;;;;;;;;;;;;24.72;35.35;101486.94;4997251;27;122110;-82
2022/09/03 12:00:52;;;;;;;;;;;;;;;24.66;35.11;101492.63;5003640;27;123842;-81
2022/09/03 12:03:22;;;;;;;;;;;;;;;24.59;35.42;101496.03;5030134;27;122872;-81
2022/09/03 12:06:04;;;;;;;;;;;;;;;24.58;35.03;101493.75;5004709;27;122559;-82
2022/09/03 12:08:48;;;;;;;;;;;;;;;24.61;35.42;101487.88;4984871;27;124357;-81
2022/09/03 12:11:39;;;;;;;;;;;;;;;24.61;35.41;101481.50;5004447;27;125084;-80
2022/09/03 12:14:05;;;;;;;;;;;;;;;24.68;35.43;101483.69;5005687;27;121590;-82
2022/09/03 12:16:51;;;;;;;;;;;;;;;24.71;35.75;101485.44;4998387;27;123684;-82
2022/09/03 12:19:51;;;;;;;;;;;;;;;24.69;35.83;101491.56;5010292;27;121769;-81
2022/09/03 12:22:18;;;;;;;;;;;;;;;24.63;35.37;101479.69;4993987;28;123920;-82
2022/09/03 12:24:44;;;;;;;;;;;;;;;24.57;35.41;101481.78;5003337;27;121638;-82
2022/09/03 12:27:14;;;;;;;;;;;;;;;24.59;35.81;101481.25;4992413;27;121281;-82
2022/09/03 12:30:01;;;;;;;;;;;;;;;24.61;35.86;101471.03;4972488;27;121807;-81
2022/09/03 12:32:28;;;;;;;;;;;;;;;24.67;36.06;101476.56;5008783;27;123894;-81
2022/09/03 12:34:54;;;;;;;;;;;;;;;24.61;36.14;101473.84;5017715;27;121520;-81
2022/09/03 12:37:22;;;;;;;;;;;;;;;24.56;37.13;101466.25;5000284;27;122814;-83
2022/09/03 12:39:55;;;;;;;;;;;;;;;24.56;37.37;101465.47;5019613;27;124260;-82
2022/09/03 12:42:29;;;;;;;;;;;;;;;24.50;37.62;101473.97;4983309;27;123329;-81
2022/09/03 12:44:55;;;;;;;;;;;;;;;24.41;38.10;101463.13;5014637;27;124509;-81
2022/09/03 12:47:23;;;;;;;;;;;;;;;24.33;37.85;101460.16;5018992;27;120868;-81